createdAt,value
2018-12-16T00:02:13.243Z,18.73
2018-12-16T00:04:43.746Z,17.83
2018-12-16T00:07:10.691Z,17.47
2018-12-16T00:09:38.252Z,17.60
2018-12-16T00:12:05.926Z,17.00
2018-12-16T00:14:33.534Z,17.33
2018-12-16T00:17:01.134Z,16.43
2018-12-16T00:19:28.823Z,16.73
2018-12-16T00:21:56.549Z,16.27
2018-12-16T00:24:24.130Z,15.70
2018-12-16T00:27:07.413Z,14.17
2018-12-16T00:32:01.038Z,16.57
2018-12-16T00:34:28.659Z,16.67
2018-12-16T00:36:56.279Z,15.17
2018-12-16T00:39:23.909Z,15.27
2018-12-16T00:41:51.852Z,15.73
2018-12-16T00:44:19.461Z,15.03
2018-12-16T00:46:47.078Z,15.23
2018-12-16T00:49:15.204Z,14.97
2018-12-16T00:51:42.827Z,15.87
2018-12-16T00:56:36.919Z,15.20
2018-12-16T00:59:04.529Z,14.43
2018-12-16T01:01:32.155Z,15.43
2018-12-16T01:03:59.850Z,14.83
2018-12-16T01:06:27.455Z,15.03
2018-12-16T01:08:55.148Z,14.07
2018-12-16T01:11:22.797Z,15.13
2018-12-16T01:13:50.467Z,15.83
2018-12-16T01:16:18.099Z,16.40
2018-12-16T01:18:45.721Z,14.37
2018-12-16T01:21:13.704Z,14.57
2018-12-16T01:23:41.437Z,15.67
2018-12-16T01:26:09.067Z,16.07
2018-12-16T01:28:36.770Z,15.40
2018-12-16T01:31:04.656Z,15.70
2018-12-16T01:33:32.254Z,16.40
2018-12-16T01:35:59.873Z,15.67
2018-12-16T01:38:27.650Z,16.27
2018-12-16T01:40:55.255Z,16.43
2018-12-16T01:43:22.880Z,16.97
2018-12-16T01:45:50.571Z,14.80
2018-12-16T01:48:18.171Z,14.90
2018-12-16T01:50:45.865Z,16.57
2018-12-16T01:53:13.523Z,16.20
2018-12-16T01:55:41.142Z,17.03
2018-12-16T01:58:08.753Z,15.87
2018-12-16T02:00:36.340Z,16.33
2018-12-16T02:03:03.925Z,16.40
2018-12-16T02:05:31.590Z,15.97
2018-12-16T02:07:59.228Z,15.77
2018-12-16T02:10:26.843Z,16.40
2018-12-16T02:12:54.538Z,16.60
2018-12-16T02:15:22.158Z,14.97
2018-12-16T02:17:49.823Z,15.73
2018-12-16T02:20:17.481Z,16.57
2018-12-16T02:22:45.056Z,16.07
2018-12-16T02:25:12.655Z,17.07
2018-12-16T02:27:40.283Z,17.40
2018-12-16T02:30:10.010Z,17.27
2018-12-16T02:32:37.600Z,17.90
2018-12-16T02:35:06.127Z,15.50
2018-12-16T02:37:33.724Z,17.13
2018-12-16T02:40:01.364Z,17.07
2018-12-16T02:42:29.100Z,16.83
2018-12-16T02:44:56.700Z,16.77
2018-12-16T02:47:24.352Z,18.60
2018-12-16T02:49:51.960Z,17.23
2018-12-16T02:52:19.630Z,16.43
2018-12-16T02:54:47.239Z,18.20
2018-12-16T02:57:14.859Z,17.33
2018-12-16T02:59:42.811Z,16.20
2018-12-16T03:02:10.424Z,17.37
2018-12-16T03:04:38.022Z,19.03
2018-12-16T03:07:05.688Z,18.60
2018-12-16T03:09:33.313Z,18.57
2018-12-16T03:12:00.946Z,17.63
2018-12-16T03:14:28.577Z,17.50
2018-12-16T03:16:56.358Z,18.00
2018-12-16T03:19:24.019Z,17.63
2018-12-16T03:21:51.674Z,16.97
2018-12-16T03:24:19.309Z,17.33
2018-12-16T03:26:46.987Z,17.60
2018-12-16T03:29:14.621Z,16.20
2018-12-16T03:31:42.251Z,17.00
2018-12-16T03:34:09.900Z,18.63
2018-12-16T03:36:37.512Z,17.63
2018-12-16T03:39:06.379Z,18.43
2018-12-16T03:41:33.986Z,18.37
2018-12-16T03:44:01.644Z,17.10
2018-12-16T03:46:29.276Z,18.47
2018-12-16T03:48:56.876Z,18.10
2018-12-16T03:51:24.724Z,17.17
2018-12-16T03:53:52.384Z,17.90
2018-12-16T03:56:20.047Z,18.47
2018-12-16T03:58:59.097Z,19.53
2018-12-16T04:01:26.741Z,18.67
2018-12-16T04:03:54.422Z,18.70
2018-12-16T04:06:22.035Z,18.20
2018-12-16T04:08:49.700Z,19.63
2018-12-16T04:11:17.326Z,18.83
2018-12-16T04:13:44.929Z,20.03
2018-12-16T04:16:12.544Z,20.03
2018-12-16T04:18:40.488Z,18.77
2018-12-16T04:21:08.066Z,19.43
2018-12-16T04:23:35.704Z,20.20
2018-12-16T04:26:03.383Z,19.40
2018-12-16T04:28:31.283Z,18.50
2018-12-16T04:30:59.777Z,19.13
2018-12-16T04:35:54.469Z,20.07
2018-12-16T04:38:22.109Z,19.73
2018-12-16T04:40:49.719Z,20.47
2018-12-16T04:43:17.343Z,18.87
2018-12-16T04:45:44.975Z,18.67
2018-12-16T04:48:12.571Z,20.03
2018-12-16T04:50:40.531Z,19.50
2018-12-16T04:53:08.189Z,18.20
2018-12-16T04:55:36.176Z,20.57
2018-12-16T04:58:04.132Z,18.27
2018-12-16T05:00:32.530Z,19.93
2018-12-16T05:05:27.325Z,20.53
2018-12-16T05:07:55.480Z,21.07
2018-12-16T05:10:28.357Z,20.73
2018-12-16T05:12:56.724Z,19.33
2018-12-16T05:15:24.399Z,19.67
2018-12-16T05:17:52.433Z,19.20
2018-12-16T05:20:20.012Z,19.07
2018-12-16T05:22:47.618Z,19.97
2018-12-16T05:25:15.371Z,20.20
2018-12-16T05:27:42.967Z,21.83
2018-12-16T05:30:10.657Z,21.20
2018-12-16T05:32:38.266Z,21.77
2018-12-16T05:35:05.905Z,21.20
2018-12-16T05:37:34.081Z,21.03
2018-12-16T05:40:01.953Z,20.10
2018-12-16T05:42:29.831Z,21.13
2018-12-16T05:44:58.290Z,19.33
2018-12-16T05:49:51.562Z,21.60
2018-12-16T05:52:19.274Z,21.73
2018-12-16T05:54:46.955Z,21.00
2018-12-16T05:57:15.357Z,21.63
2018-12-16T05:59:42.987Z,21.07
2018-12-16T06:02:10.579Z,21.03
2018-12-16T06:04:38.356Z,21.53
2018-12-16T06:07:06.597Z,21.03
2018-12-16T06:09:34.194Z,20.80
2018-12-16T06:12:02.660Z,21.10
2018-12-16T06:14:30.351Z,19.40
2018-12-16T06:16:57.999Z,21.30
2018-12-16T06:19:26.280Z,22.20
2018-12-16T06:21:54.651Z,21.80
2018-12-16T06:24:23.120Z,22.57
2018-12-16T06:26:51.336Z,22.00
2018-12-16T06:29:18.981Z,21.57
2018-12-16T06:31:46.605Z,20.07
2018-12-16T06:34:14.841Z,21.17
2018-12-16T06:36:43.079Z,22.83
2018-12-16T06:39:10.727Z,22.47
2018-12-16T06:44:03.641Z,21.90
2018-12-16T06:46:31.312Z,22.23
2018-12-16T06:48:59.087Z,23.17
2018-12-16T06:51:27.128Z,22.03
2018-12-16T06:53:55.007Z,19.37
2018-12-16T06:56:22.760Z,21.93
2018-12-16T06:58:50.387Z,22.13
2018-12-16T07:01:18.666Z,22.87
2018-12-16T07:03:46.334Z,22.60
2018-12-16T07:06:14.771Z,21.13
2018-12-16T07:08:43.149Z,21.83
2018-12-16T07:11:10.910Z,22.37
2018-12-16T07:13:38.681Z,19.27
2018-12-16T07:16:06.528Z,20.37
2018-12-16T07:18:34.161Z,20.97
2018-12-16T07:21:01.832Z,20.77
2018-12-16T07:23:29.520Z,19.77
2018-12-16T07:25:57.142Z,20.77
2018-12-16T07:28:25.108Z,22.33
2018-12-16T07:30:53.130Z,20.50
2018-12-16T07:33:20.806Z,20.33
2018-12-16T07:35:48.657Z,21.83
2018-12-16T07:38:16.265Z,21.47
2018-12-16T07:40:44.057Z,20.73
2018-12-16T07:43:11.695Z,21.47
2018-12-16T07:45:39.367Z,20.37
2018-12-16T07:48:07.406Z,20.17
2018-12-16T07:50:35.106Z,20.47
2018-12-16T07:53:02.855Z,20.97
2018-12-16T07:55:30.794Z,19.87
2018-12-16T07:57:58.488Z,21.77
2018-12-16T08:00:26.104Z,20.40
2018-12-16T08:02:53.750Z,19.13
2018-12-16T08:05:21.614Z,20.03
2018-12-16T08:07:49.397Z,20.70
2018-12-16T08:10:17.063Z,20.63
2018-12-16T08:12:44.792Z,16.33
2018-12-16T08:15:12.444Z,21.97
2018-12-16T08:17:40.082Z,17.67
2018-12-16T08:20:08.054Z,9.07
2018-12-16T08:22:35.729Z,20.10
2018-12-16T08:25:03.748Z,20.00
2018-12-16T08:27:31.646Z,16.93
2018-12-16T08:29:59.271Z,20.13
2018-12-16T08:32:26.963Z,18.73
2018-12-16T08:34:54.721Z,17.93
2018-12-16T08:37:22.349Z,16.97
2018-12-16T08:39:50.020Z,18.97
2018-12-16T08:42:17.663Z,17.40
2018-12-16T08:44:45.286Z,16.57
2018-12-16T08:47:13.009Z,18.23
2018-12-16T08:49:40.621Z,18.97
2018-12-16T08:52:08.254Z,19.73
2018-12-16T08:54:35.963Z,16.90
2018-12-16T08:57:03.595Z,17.03
2018-12-16T08:59:31.260Z,20.03
2018-12-16T09:01:58.862Z,19.90
2018-12-16T09:04:26.854Z,19.20
2018-12-16T09:06:54.530Z,18.60
2018-12-16T09:09:22.619Z,17.13
2018-12-16T09:11:50.273Z,16.77
2018-12-16T09:14:17.836Z,18.90
2018-12-16T09:16:45.502Z,16.13
2018-12-16T09:19:13.133Z,16.03
2018-12-16T09:21:40.825Z,17.83
2018-12-16T09:24:08.415Z,18.87
2018-12-16T09:26:36.116Z,16.37
2018-12-16T09:29:03.747Z,16.73
2018-12-16T09:31:31.383Z,16.90
2018-12-16T09:33:59.335Z,16.43
2018-12-16T09:36:26.955Z,16.87
2018-12-16T09:38:54.646Z,15.50
2018-12-16T09:41:22.328Z,15.20
2018-12-16T09:43:49.962Z,15.43
2018-12-16T09:46:17.991Z,15.10
2018-12-16T09:48:45.616Z,14.17
2018-12-16T09:51:13.249Z,15.50
2018-12-16T09:53:41.286Z,16.70
2018-12-16T09:56:08.997Z,13.97
2018-12-16T09:58:36.621Z,16.07
2018-12-16T10:01:04.264Z,13.47
2018-12-16T10:03:31.895Z,13.00
2018-12-16T10:05:59.727Z,15.27
2018-12-16T10:08:27.651Z,14.47
2018-12-16T10:10:55.257Z,15.30
2018-12-16T10:13:23.021Z,15.10
2018-12-16T10:15:50.693Z,14.83
2018-12-16T10:18:18.305Z,15.33
2018-12-16T10:20:45.950Z,15.20
2018-12-16T10:23:13.589Z,15.00
2018-12-16T10:25:41.227Z,15.57
2018-12-16T10:28:08.861Z,17.67
2018-12-16T10:30:36.548Z,15.67
2018-12-16T10:33:04.213Z,16.97
2018-12-16T10:35:31.809Z,16.40
2018-12-16T10:37:59.440Z,18.20
2018-12-16T10:40:27.090Z,17.63
2018-12-16T10:42:54.738Z,18.00
2018-12-16T10:45:22.431Z,18.27
2018-12-16T10:47:50.215Z,17.67
2018-12-16T10:50:17.819Z,21.40
2018-12-16T10:52:45.512Z,19.83
2018-12-16T10:55:13.211Z,17.97
2018-12-16T10:57:40.875Z,18.03
2018-12-16T11:00:13.871Z,17.50
2018-12-16T11:02:41.459Z,18.57
2018-12-16T11:05:10.147Z,17.87
2018-12-16T11:07:37.795Z,18.00
2018-12-16T11:10:05.563Z,18.03
2018-12-16T11:12:33.675Z,18.63
2018-12-16T11:15:01.293Z,18.90
2018-12-16T11:17:28.950Z,16.77
2018-12-16T11:19:56.571Z,17.43
2018-12-16T11:22:24.207Z,18.80
2018-12-16T11:24:53.099Z,18.70
2018-12-16T11:27:20.936Z,16.53
2018-12-16T11:29:48.605Z,16.40
2018-12-16T11:32:16.344Z,18.40
2018-12-16T11:34:44.076Z,16.53
2018-12-16T11:37:11.735Z,17.80
2018-12-16T11:39:39.471Z,16.97
2018-12-16T11:42:07.132Z,16.60
2018-12-16T11:44:35.745Z,16.73
2018-12-16T11:47:03.445Z,17.27
2018-12-16T11:49:31.194Z,17.23
2018-12-16T11:51:59.007Z,17.50
2018-12-16T11:54:26.625Z,17.50
2018-12-16T11:56:54.261Z,17.73
2018-12-16T11:59:21.955Z,17.20
2018-12-16T12:01:49.628Z,17.83
2018-12-16T12:04:18.988Z,18.00
2018-12-16T12:06:46.648Z,16.70
2018-12-16T12:09:14.569Z,18.80
2018-12-16T12:11:42.434Z,18.20
2018-12-16T12:14:11.035Z,18.67
2018-12-16T12:16:38.684Z,19.27
2018-12-16T12:19:06.371Z,17.70
2018-12-16T12:21:34.166Z,17.73
2018-12-16T12:24:01.828Z,17.57
2018-12-16T12:26:29.506Z,17.67
2018-12-16T12:28:57.275Z,19.20
2018-12-16T12:54:54.128Z,11.30
2018-12-16T12:57:22.115Z,14.20
2018-12-16T12:59:50.475Z,13.77
2018-12-16T13:02:18.359Z,13.27
2018-12-16T13:04:46.029Z,14.37
2018-12-16T13:07:13.758Z,14.47
2018-12-16T13:09:41.376Z,14.93
2018-12-16T13:12:09.056Z,14.60
2018-12-16T13:14:36.684Z,14.50
2018-12-16T13:17:04.314Z,14.70
2018-12-16T13:19:32.548Z,14.20
2018-12-16T13:22:00.189Z,15.30
2018-12-16T13:24:27.838Z,15.43
2018-12-16T13:26:56.337Z,13.97
2018-12-16T13:29:24.143Z,16.17
2018-12-16T13:31:52.587Z,14.80
2018-12-16T13:34:20.226Z,15.37
2018-12-16T13:36:48.921Z,15.33
2018-12-16T13:39:16.575Z,15.37
2018-12-16T13:41:44.490Z,16.23
2018-12-16T13:44:12.136Z,17.10
2018-12-16T13:46:39.758Z,17.57
2018-12-16T13:49:07.711Z,16.27
2018-12-16T13:51:36.549Z,17.47
2018-12-16T13:54:04.454Z,16.70
2018-12-16T13:56:32.423Z,17.03
2018-12-16T13:59:00.086Z,17.90
2018-12-16T14:01:27.766Z,17.83
2018-12-16T14:03:55.696Z,17.70
2018-12-16T14:06:23.290Z,17.27
2018-12-16T14:08:50.867Z,18.30
2018-12-16T14:11:18.849Z,17.83
2018-12-16T14:13:46.604Z,18.17
2018-12-16T14:16:14.425Z,18.23
2018-12-16T14:18:42.060Z,17.50
2018-12-16T14:21:09.667Z,19.20
2018-12-16T14:23:37.282Z,18.30
2018-12-16T14:26:04.909Z,18.00
2018-12-16T14:28:32.533Z,18.53
2018-12-16T14:31:00.296Z,19.30
2018-12-16T14:33:27.885Z,18.43
2018-12-16T14:35:55.587Z,19.77
2018-12-16T14:38:23.465Z,18.43
2018-12-16T14:40:51.111Z,18.57
2018-12-16T14:43:18.804Z,18.30
2018-12-16T14:45:46.453Z,19.03
2018-12-16T14:48:14.100Z,19.70
2018-12-16T14:50:41.696Z,19.77
2018-12-16T14:53:09.350Z,21.97
2018-12-16T14:55:37.426Z,21.43
2018-12-16T14:58:05.066Z,20.80
2018-12-16T15:00:32.756Z,20.27
2018-12-16T15:03:00.411Z,19.30
2018-12-16T15:05:28.603Z,19.10
2018-12-16T15:07:56.356Z,18.87
2018-12-16T15:10:24.042Z,18.47
2018-12-16T15:12:51.660Z,18.13
2018-12-16T15:15:19.410Z,18.90
2018-12-16T15:17:47.040Z,18.53
2018-12-16T15:20:17.083Z,17.60
2018-12-16T15:22:44.752Z,20.27
2018-12-16T15:25:12.380Z,20.27
2018-12-16T15:27:39.978Z,19.30
2018-12-16T15:30:09.310Z,20.67
2018-12-16T15:32:36.944Z,19.83
2018-12-16T15:35:04.897Z,19.87
2018-12-16T15:37:32.590Z,19.77
2018-12-16T15:40:00.226Z,19.70
2018-12-16T15:42:27.869Z,19.50
2018-12-16T15:44:55.512Z,18.83
2018-12-16T15:47:23.147Z,18.90
2018-12-16T15:49:50.779Z,18.90
2018-12-16T15:52:18.424Z,19.67
2018-12-16T15:54:46.008Z,18.10
2018-12-16T15:57:13.674Z,19.23
2018-12-16T15:59:41.286Z,18.40
2018-12-16T16:02:08.964Z,18.07
2018-12-16T16:04:36.639Z,18.93
2018-12-16T16:07:04.227Z,19.43
2018-12-16T16:09:31.836Z,18.13
2018-12-16T16:11:59.508Z,18.90
2018-12-16T16:14:27.101Z,19.20
2018-12-16T16:16:54.717Z,18.87
2018-12-16T16:19:22.454Z,20.40
2018-12-16T16:21:50.135Z,19.30
2018-12-16T16:24:17.762Z,19.47
2018-12-16T16:26:45.416Z,18.83
2018-12-16T16:29:13.014Z,18.90
2018-12-16T16:31:40.658Z,18.77
2018-12-16T16:34:08.866Z,20.37
2018-12-16T16:36:37.061Z,20.03
2018-12-16T16:39:05.708Z,20.43
2018-12-16T16:41:33.689Z,21.13
2018-12-16T16:44:01.301Z,20.10
2018-12-16T16:46:29.015Z,18.07
2018-12-16T16:48:56.622Z,19.67
2018-12-16T16:51:24.345Z,19.60
2018-12-16T16:53:52.513Z,19.40
2018-12-16T16:56:23.114Z,20.03
2018-12-16T16:58:50.067Z,20.03
2018-12-16T17:01:18.155Z,18.73
2018-12-16T17:03:45.989Z,19.33
2018-12-16T17:06:13.715Z,19.47
2018-12-16T17:08:41.560Z,19.77
2018-12-16T17:11:09.558Z,19.53
2018-12-16T17:13:37.344Z,20.97
2018-12-16T17:16:05.198Z,21.03
2018-12-16T17:18:32.871Z,21.67
2018-12-16T17:21:01.111Z,19.40
2018-12-16T17:23:28.903Z,19.83
2018-12-16T17:25:56.520Z,18.80
2018-12-16T17:28:24.243Z,21.17
2018-12-16T17:30:52.053Z,19.27
2018-12-16T17:33:19.760Z,20.23
2018-12-16T17:35:47.587Z,19.47
2018-12-16T17:38:15.312Z,19.57
2018-12-16T17:40:43.129Z,20.17
2018-12-16T17:43:11.596Z,20.60
2018-12-16T17:45:39.526Z,19.87
2018-12-16T17:48:07.971Z,19.30
2018-12-16T17:50:35.919Z,20.60
2018-12-16T17:53:03.721Z,23.13
2018-12-16T17:55:31.480Z,25.70
2018-12-16T17:57:59.663Z,24.90
2018-12-16T18:00:27.492Z,26.67
2018-12-16T18:02:55.275Z,27.20
2018-12-16T18:05:23.574Z,26.10
2018-12-16T18:07:51.818Z,26.60
2018-12-16T18:10:19.655Z,26.00
2018-12-16T18:12:47.394Z,24.97
2018-12-16T18:15:15.022Z,25.00
2018-12-16T18:17:42.914Z,24.40
2018-12-16T18:20:10.535Z,23.90
2018-12-16T18:22:38.359Z,22.60
2018-12-16T18:25:06.538Z,22.60
2018-12-16T18:27:34.668Z,23.63
2018-12-16T18:30:02.439Z,23.57
2018-12-16T18:32:30.159Z,25.47
2018-12-16T18:34:58.009Z,24.83
2018-12-16T18:37:26.044Z,26.57
2018-12-16T18:39:53.715Z,24.30
2018-12-16T18:42:21.524Z,24.00
2018-12-16T18:44:49.236Z,24.47
2018-12-16T18:47:17.004Z,23.57
2018-12-16T18:49:44.767Z,23.70
2018-12-16T18:52:12.545Z,22.10
2018-12-16T18:54:40.296Z,24.93
2018-12-16T18:57:08.241Z,25.57
2018-12-16T18:59:36.082Z,24.63
2018-12-16T19:02:03.927Z,26.20
2018-12-16T19:04:32.379Z,27.70
2018-12-16T19:07:00.261Z,27.77
2018-12-16T19:09:28.134Z,27.10
2018-12-16T19:11:58.917Z,25.30
2018-12-16T19:14:26.720Z,24.83
